sensor_id;sensor_type;location;lat;lon;timestamp;pressure;altitude;pressure_sealevel;temperature;humidity
73332;BME280;61560;33.718;73.040;2023-03-12T00:00:48;95049.06;;;19.18;59.81
73332;BME280;61560;33.718;73.040;2023-03-12T00:03:15;95059.84;;;19.16;59.95
73332;BME280;61560;33.718;73.040;2023-03-12T00:05:42;95058.59;;;19.17;60.02
73332;BME280;61560;33.718;73.040;2023-03-12T00:08:09;95058.75;;;19.14;60.44
73332;BME280;61560;33.718;73.040;2023-03-12T00:10:38;95060.16;;;19.09;60.84
73332;BME280;61560;33.718;73.040;2023-03-12T00:13:05;95057.53;;;19.06;61.04
73332;BME280;61560;33.718;73.040;2023-03-12T00:15:35;95075.28;;;19.08;61.09
73332;BME280;61560;33.718;73.040;2023-03-12T00:18:02;95075.09;;;19.03;61.26
73332;BME280;61560;33.718;73.040;2023-03-12T00:20:28;95076.66;;;19.04;61.15
73332;BME280;61560;33.718;73.040;2023-03-12T00:22:55;95079.44;;;19.04;60.95
73332;BME280;61560;33.718;73.040;2023-03-12T00:25:21;95084.34;;;19.00;61.08
73332;BME280;61560;33.718;73.040;2023-03-12T00:27:49;95080.03;;;18.99;61.25
73332;BME280;61560;33.718;73.040;2023-03-12T00:30:15;95083.59;;;18.99;60.94
73332;BME280;61560;33.718;73.040;2023-03-12T00:32:42;95087.44;;;19.02;60.93
73332;BME280;61560;33.718;73.040;2023-03-12T00:35:08;95090.22;;;19.02;61.01
73332;BME280;61560;33.718;73.040;2023-03-12T00:37:36;95089.91;;;19.00;61.05
73332;BME280;61560;33.718;73.040;2023-03-12T00:40:04;95095.16;;;18.98;61.35
73332;BME280;61560;33.718;73.040;2023-03-12T00:42:32;95094.06;;;18.95;61.40
73332;BME280;61560;33.718;73.040;2023-03-12T00:44:58;95101.16;;;18.96;61.37
73332;BME280;61560;33.718;73.040;2023-03-12T00:47:25;95105.94;;;18.96;61.59
73332;BME280;61560;33.718;73.040;2023-03-12T00:49:51;95110.72;;;18.95;61.59
73332;BME280;61560;33.718;73.040;2023-03-12T00:52:18;95104.25;;;18.98;61.52
73332;BME280;61560;33.718;73.040;2023-03-12T00:54:44;95107.16;;;18.95;61.41
73332;BME280;61560;33.718;73.040;2023-03-12T00:57:11;95113.19;;;18.93;61.84
73332;BME280;61560;33.718;73.040;2023-03-12T00:59:38;95114.28;;;18.96;61.42
73332;BME280;61560;33.718;73.040;2023-03-12T01:02:07;95109.19;;;18.94;61.54
73332;BME280;61560;33.718;73.040;2023-03-12T01:04:34;95110.09;;;18.91;61.17
73332;BME280;61560;33.718;73.040;2023-03-12T01:07:01;95112.72;;;18.86;61.44
73332;BME280;61560;33.718;73.040;2023-03-12T01:09:28;95114.34;;;18.74;61.87
73332;BME280;61560;33.718;73.040;2023-03-12T01:11:54;95117.44;;;18.67;62.31
73332;BME280;61560;33.718;73.040;2023-03-12T01:14:21;95116.97;;;18.68;62.16
73332;BME280;61560;33.718;73.040;2023-03-12T01:16:49;95119.75;;;18.68;61.91
73332;BME280;61560;33.718;73.040;2023-03-12T01:19:15;95116.66;;;18.66;62.13
73332;BME280;61560;33.718;73.040;2023-03-12T01:21:45;95115.88;;;18.66;62.13
73332;BME280;61560;33.718;73.040;2023-03-12T01:24:11;95128.53;;;18.67;62.09
73332;BME280;61560;33.718;73.040;2023-03-12T01:26:38;95131.16;;;18.70;61.96
73332;BME280;61560;33.718;73.040;2023-03-12T01:29:05;95136.06;;;18.66;62.09
73332;BME280;61560;33.718;73.040;2023-03-12T01:31:31;95137.94;;;18.69;61.81
73332;BME280;61560;33.718;73.040;2023-03-12T01:33:58;95137.63;;;18.67;61.68
73332;BME280;61560;33.718;73.040;2023-03-12T01:36:27;95128.53;;;18.67;61.61
73332;BME280;61560;33.718;73.040;2023-03-12T01:38:56;95129.63;;;18.69;61.51
73332;BME280;61560;33.718;73.040;2023-03-12T01:41:27;95117.28;;;18.70;61.81
73332;BME280;61560;33.718;73.040;2023-03-12T01:43:54;95126.53;;;18.76;61.75
73332;BME280;61560;33.718;73.040;2023-03-12T01:49:02;95142.47;;;18.85;61.59
73332;BME280;61560;33.718;73.040;2023-03-12T01:51:38;95138.31;;;18.90;61.55
73332;BME280;61560;33.718;73.040;2023-03-12T01:54:32;95138.47;;;18.95;61.44
73332;BME280;61560;33.718;73.040;2023-03-12T01:56:57;95144.34;;;18.97;61.55
73332;BME280;61560;33.718;73.040;2023-03-12T01:59:29;95143.28;;;19.04;60.95
73332;BME280;61560;33.718;73.040;2023-03-12T02:01:57;95147.31;;;19.12;61.06
73332;BME280;61560;33.718;73.040;2023-03-12T02:04:25;95148.09;;;19.21;60.96
73332;BME280;61560;33.718;73.040;2023-03-12T02:07:14;95150.13;;;19.30;60.68
73332;BME280;61560;33.718;73.040;2023-03-12T02:09:46;95158.34;;;19.42;60.55
73332;BME280;61560;33.718;73.040;2023-03-12T02:12:15;95151.72;;;19.49;60.61
73332;BME280;61560;33.718;73.040;2023-03-12T02:14:42;95163.28;;;19.56;60.34
73332;BME280;61560;33.718;73.040;2023-03-12T02:17:09;95164.53;;;19.65;60.43
73332;BME280;61560;33.718;73.040;2023-03-12T02:20:04;95179.53;;;19.76;59.61
73332;BME280;61560;33.718;73.040;2023-03-12T02:22:35;95180.59;;;19.88;59.37
73332;BME280;61560;33.718;73.040;2023-03-12T02:27:41;95176.88;;;20.09;58.82
73332;BME280;61560;33.718;73.040;2023-03-12T02:30:08;95177.19;;;20.20;58.24
73332;BME280;61560;33.718;73.040;2023-03-12T02:32:38;95177.00;;;20.32;58.30
73332;BME280;61560;33.718;73.040;2023-03-12T02:35:05;95179.13;;;20.47;57.93
73332;BME280;61560;33.718;73.040;2023-03-12T02:37:32;95183.28;;;20.60;57.71
73332;BME280;61560;33.718;73.040;2023-03-12T02:40:06;95188.97;;;20.75;56.83
73332;BME280;61560;33.718;73.040;2023-03-12T02:42:39;95185.78;;;20.91;56.56
73332;BME280;61560;33.718;73.040;2023-03-12T02:45:06;95196.44;;;21.01;56.76
73332;BME280;61560;33.718;73.040;2023-03-12T02:47:33;95195.91;;;21.12;56.12
73332;BME280;61560;33.718;73.040;2023-03-12T02:50:00;95201.56;;;21.27;56.00
73332;BME280;61560;33.718;73.040;2023-03-12T02:52:27;95204.00;;;21.43;55.87
73332;BME280;61560;33.718;73.040;2023-03-12T02:55:01;95203.28;;;21.57;54.89
73332;BME280;61560;33.718;73.040;2023-03-12T02:57:28;95211.50;;;21.75;54.57
73332;BME280;61560;33.718;73.040;2023-03-12T02:59:55;95208.03;;;21.89;54.48
73332;BME280;61560;33.718;73.040;2023-03-12T03:02:21;95217.03;;;22.08;54.08
73332;BME280;61560;33.718;73.040;2023-03-12T03:04:49;95220.63;;;22.23;53.07
73332;BME280;61560;33.718;73.040;2023-03-12T03:07:15;95220.75;;;22.43;52.31
73332;BME280;61560;33.718;73.040;2023-03-12T03:09:42;95221.81;;;22.60;51.65
73332;BME280;61560;33.718;73.040;2023-03-12T03:12:13;95228.59;;;22.68;50.94
73332;BME280;61560;33.718;73.040;2023-03-12T03:14:40;95232.63;;;22.82;50.12
73332;BME280;61560;33.718;73.040;2023-03-12T03:17:07;95237.78;;;23.03;49.41
73332;BME280;61560;33.718;73.040;2023-03-12T03:19:34;95235.94;;;23.29;49.06
73332;BME280;61560;33.718;73.040;2023-03-12T03:22:00;95241.00;;;23.60;48.23
73332;BME280;61560;33.718;73.040;2023-03-12T03:24:26;95241.28;;;23.82;47.44
73332;BME280;61560;33.718;73.040;2023-03-12T03:26:53;95246.13;;;24.02;47.47
73332;BME280;61560;33.718;73.040;2023-03-12T03:29:20;95240.06;;;24.23;47.02
73332;BME280;61560;33.718;73.040;2023-03-12T03:31:47;95239.75;;;24.42;47.17
73332;BME280;61560;33.718;73.040;2023-03-12T03:34:13;95242.75;;;24.84;46.13
73332;BME280;61560;33.718;73.040;2023-03-12T03:36:40;95234.53;;;25.74;44.25
73332;BME280;61560;33.718;73.040;2023-03-12T03:39:11;95231.00;;;26.27;42.32
73332;BME280;61560;33.718;73.040;2023-03-12T03:41:37;95230.66;;;27.22;40.82
73332;BME280;61560;33.718;73.040;2023-03-12T03:44:05;95229.19;;;28.34;37.90
73332;BME280;61560;33.718;73.040;2023-03-12T03:46:35;95232.31;;;29.18;36.22
73332;BME280;61560;33.718;73.040;2023-03-12T03:49:05;95240.78;;;30.25;34.42
73332;BME280;61560;33.718;73.040;2023-03-12T03:51:33;95236.38;;;31.41;31.68
73332;BME280;61560;33.718;73.040;2023-03-12T03:54:05;95229.75;;;32.23;30.13
73332;BME280;61560;33.718;73.040;2023-03-12T03:56:31;95234.97;;;33.18;28.18
73332;BME280;61560;33.718;73.040;2023-03-12T03:59:00;95231.66;;;33.89;27.57
73332;BME280;61560;33.718;73.040;2023-03-12T04:01:28;95228.59;;;34.08;27.39
73332;BME280;61560;33.718;73.040;2023-03-12T04:03:56;95236.59;;;34.09;27.67
73332;BME280;61560;33.718;73.040;2023-03-12T04:06:23;95242.78;;;34.28;27.69
73332;BME280;61560;33.718;73.040;2023-03-12T04:08:50;95237.91;;;34.65;27.01
73332;BME280;61560;33.718;73.040;2023-03-12T04:11:20;95246.28;;;34.78;26.49
73332;BME280;61560;33.718;73.040;2023-03-12T04:13:48;95246.31;;;35.36;26.43
73332;BME280;61560;33.718;73.040;2023-03-12T04:16:17;95243.72;;;35.76;25.63
73332;BME280;61560;33.718;73.040;2023-03-12T04:18:45;95250.03;;;35.89;25.43
73332;BME280;61560;33.718;73.040;2023-03-12T04:21:14;95242.63;;;36.01;24.55
73332;BME280;61560;33.718;73.040;2023-03-12T04:23:41;95250.56;;;36.48;23.75
73332;BME280;61560;33.718;73.040;2023-03-12T04:26:10;95254.25;;;36.96;23.59
73332;BME280;61560;33.718;73.040;2023-03-12T04:28:38;95244.81;;;37.18;22.64
73332;BME280;61560;33.718;73.040;2023-03-12T04:31:07;95243.22;;;37.40;22.22
73332;BME280;61560;33.718;73.040;2023-03-12T04:33:46;95245.38;;;37.56;21.62
73332;BME280;61560;33.718;73.040;2023-03-12T04:36:14;95244.31;;;37.69;21.21
73332;BME280;61560;33.718;73.040;2023-03-12T04:38:43;95236.94;;;38.15;20.73
73332;BME280;61560;33.718;73.040;2023-03-12T04:41:12;95239.44;;;38.11;21.04
73332;BME280;61560;33.718;73.040;2023-03-12T04:43:46;95243.41;;;37.66;20.78
73332;BME280;61560;33.718;73.040;2023-03-12T04:46:13;95243.34;;;36.32;21.98
73332;BME280;61560;33.718;73.040;2023-03-12T04:48:42;95248.41;;;35.43;23.30
73332;BME280;61560;33.718;73.040;2023-03-12T04:51:08;95251.22;;;34.77;24.32
73332;BME280;61560;33.718;73.040;2023-03-12T04:53:35;95238.50;;;34.71;24.15
73332;BME280;61560;33.718;73.040;2023-03-12T04:56:02;95233.31;;;35.05;23.71
73332;BME280;61560;33.718;73.040;2023-03-12T04:58:31;95244.56;;;35.18;22.78
73332;BME280;61560;33.718;73.040;2023-03-12T05:00:58;95237.44;;;35.70;22.74
73332;BME280;61560;33.718;73.040;2023-03-12T05:03:25;95239.88;;;36.56;22.14
73332;BME280;61560;33.718;73.040;2023-03-12T05:05:53;95231.13;;;37.17;21.17
73332;BME280;61560;33.718;73.040;2023-03-12T05:08:19;95241.44;;;37.44;21.08
73332;BME280;61560;33.718;73.040;2023-03-12T05:10:46;95235.75;;;37.69;19.98
73332;BME280;61560;33.718;73.040;2023-03-12T05:13:21;95233.69;;;37.94;19.85
73332;BME280;61560;33.718;73.040;2023-03-12T05:15:54;95231.25;;;37.91;19.94
73332;BME280;61560;33.718;73.040;2023-03-12T05:18:21;95240.44;;;37.17;21.04
73332;BME280;61560;33.718;73.040;2023-03-12T05:20:59;95233.78;;;37.15;21.07
73332;BME280;61560;33.718;73.040;2023-03-12T05:23:26;95227.91;;;37.13;21.53
73332;BME280;61560;33.718;73.040;2023-03-12T05:25:53;95238.09;;;37.31;21.75
73332;BME280;61560;33.718;73.040;2023-03-12T05:28:20;95239.22;;;37.28;22.08
73332;BME280;61560;33.718;73.040;2023-03-12T05:30:55;95241.16;;;37.25;21.78
73332;BME280;61560;33.718;73.040;2023-03-12T05:33:23;95236.97;;;37.26;20.85
73332;BME280;61560;33.718;73.040;2023-03-12T05:35:52;95236.19;;;36.78;21.84
73332;BME280;61560;33.718;73.040;2023-03-12T05:38:19;95234.22;;;36.34;22.96
73332;BME280;61560;33.718;73.040;2023-03-12T05:40:51;95229.41;;;36.59;22.74
73332;BME280;61560;33.718;73.040;2023-03-12T05:43:20;95232.44;;;36.68;22.75
73332;BME280;61560;33.718;73.040;2023-03-12T05:45:46;95223.72;;;36.59;22.71
73332;BME280;61560;33.718;73.040;2023-03-12T05:48:14;95234.25;;;36.11;23.51
73332;BME280;61560;33.718;73.040;2023-03-12T05:50:41;95227.00;;;35.65;23.78
73332;BME280;61560;33.718;73.040;2023-03-12T05:53:08;95234.16;;;35.43;24.12
73332;BME280;61560;33.718;73.040;2023-03-12T05:55:38;95234.97;;;34.93;24.71
73332;BME280;61560;33.718;73.040;2023-03-12T05:58:06;95235.63;;;34.42;25.05
73332;BME280;61560;33.718;73.040;2023-03-12T06:00:34;95232.63;;;34.12;25.74
73332;BME280;61560;33.718;73.040;2023-03-12T06:03:04;95227.09;;;33.86;26.51
73332;BME280;61560;33.718;73.040;2023-03-12T06:05:33;95232.28;;;33.74;26.73
73332;BME280;61560;33.718;73.040;2023-03-12T06:08:01;95230.44;;;33.77;26.72
73332;BME280;61560;33.718;73.040;2023-03-12T06:10:28;95229.59;;;33.48;27.10
73332;BME280;61560;33.718;73.040;2023-03-12T06:12:56;95224.50;;;33.13;27.78
73332;BME280;61560;33.718;73.040;2023-03-12T06:15:23;95223.84;;;32.73;27.81
73332;BME280;61560;33.718;73.040;2023-03-12T06:17:49;95224.28;;;32.64;28.43
73332;BME280;61560;33.718;73.040;2023-03-12T06:20:16;95225.19;;;32.46;29.58
73332;BME280;61560;33.718;73.040;2023-03-12T06:22:44;95217.56;;;32.02;28.78
73332;BME280;61560;33.718;73.040;2023-03-12T06:25:10;95217.19;;;31.92;28.78
73332;BME280;61560;33.718;73.040;2023-03-12T06:27:38;95220.47;;;31.83;29.73
73332;BME280;61560;33.718;73.040;2023-03-12T06:30:06;95215.69;;;31.91;28.42
73332;BME280;61560;33.718;73.040;2023-03-12T06:32:33;95209.94;;;31.97;27.95
73332;BME280;61560;33.718;73.040;2023-03-12T06:34:59;95204.81;;;31.95;28.43
73332;BME280;61560;33.718;73.040;2023-03-12T06:37:26;95206.88;;;31.95;27.85
73332;BME280;61560;33.718;73.040;2023-03-12T06:39:53;95209.66;;;31.82;27.63
73332;BME280;61560;33.718;73.040;2023-03-12T06:42:20;95202.88;;;31.59;28.51
73332;BME280;61560;33.718;73.040;2023-03-12T06:44:48;95205.31;;;31.36;28.68
73332;BME280;61560;33.718;73.040;2023-03-12T06:47:16;95201.97;;;31.19;28.89
73332;BME280;61560;33.718;73.040;2023-03-12T06:49:43;95204.31;;;31.02;28.67
73332;BME280;61560;33.718;73.040;2023-03-12T06:52:10;95202.41;;;30.73;29.09
73332;BME280;61560;33.718;73.040;2023-03-12T06:54:36;95200.72;;;30.45;29.32
73332;BME280;61560;33.718;73.040;2023-03-12T06:57:03;95202.19;;;30.28;29.42
73332;BME280;61560;33.718;73.040;2023-03-12T06:59:30;95197.31;;;30.28;29.09
73332;BME280;61560;33.718;73.040;2023-03-12T07:01:56;95196.31;;;30.26;29.04
73332;BME280;61560;33.718;73.040;2023-03-12T07:04:23;95192.09;;;30.14;28.67
73332;BME280;61560;33.718;73.040;2023-03-12T07:06:51;95197.38;;;30.04;28.60
73332;BME280;61560;33.718;73.040;2023-03-12T07:09:18;95194.63;;;29.99;28.56
73332;BME280;61560;33.718;73.040;2023-03-12T07:11:45;95197.25;;;29.91;28.41
73332;BME280;61560;33.718;73.040;2023-03-12T07:14:11;95192.25;;;29.78;28.25
73332;BME280;61560;33.718;73.040;2023-03-12T07:16:38;95197.44;;;29.74;28.41
73332;BME280;61560;33.718;73.040;2023-03-12T07:19:06;95198.78;;;29.68;28.33
73332;BME280;61560;33.718;73.040;2023-03-12T07:21:33;95194.94;;;29.65;27.67
73332;BME280;61560;33.718;73.040;2023-03-12T07:23:59;95189.06;;;29.63;27.63
73332;BME280;61560;33.718;73.040;2023-03-12T07:26:33;95190.09;;;29.60;28.10
73332;BME280;61560;33.718;73.040;2023-03-12T07:29:00;95186.94;;;29.69;27.51
73332;BME280;61560;33.718;73.040;2023-03-12T07:31:27;95187.72;;;29.70;28.06
73332;BME280;61560;33.718;73.040;2023-03-12T07:33:53;95182.09;;;29.64;28.30
73332;BME280;61560;33.718;73.040;2023-03-12T07:36:22;95176.19;;;29.68;27.36
73332;BME280;61560;33.718;73.040;2023-03-12T07:38:48;95179.22;;;29.75;27.99
73332;BME280;61560;33.718;73.040;2023-03-12T07:41:16;95172.75;;;29.99;27.41
73332;BME280;61560;33.718;73.040;2023-03-12T07:43:42;95167.91;;;30.18;27.40
73332;BME280;61560;33.718;73.040;2023-03-12T07:46:09;95165.03;;;30.42;26.96
73332;BME280;61560;33.718;73.040;2023-03-12T07:48:35;95160.47;;;30.58;27.08
73332;BME280;61560;33.718;73.040;2023-03-12T07:51:02;95165.09;;;30.74;27.21
73332;BME280;61560;33.718;73.040;2023-03-12T07:53:29;95161.19;;;30.77;26.60
73332;BME280;61560;33.718;73.040;2023-03-12T07:55:56;95152.69;;;30.77;25.92
73332;BME280;61560;33.718;73.040;2023-03-12T07:58:23;95147.69;;;30.70;26.19
73332;BME280;61560;33.718;73.040;2023-03-12T08:00:49;95152.22;;;30.60;26.61
73332;BME280;61560;33.718;73.040;2023-03-12T08:03:16;95136.06;;;30.55;24.94
73332;BME280;61560;33.718;73.040;2023-03-12T08:05:55;95133.19;;;30.42;25.18
73332;BME280;61560;33.718;73.040;2023-03-12T08:08:22;95136.72;;;30.29;25.85
73332;BME280;61560;33.718;73.040;2023-03-12T08:10:48;95125.88;;;30.28;25.93
73332;BME280;61560;33.718;73.040;2023-03-12T08:13:15;95123.06;;;30.28;27.35
73332;BME280;61560;33.718;73.040;2023-03-12T08:15:42;95130.81;;;30.27;27.61
73332;BME280;61560;33.718;73.040;2023-03-12T08:18:10;95127.75;;;30.25;27.84
73332;BME280;61560;33.718;73.040;2023-03-12T08:20:36;95125.75;;;30.20;27.54
73332;BME280;61560;33.718;73.040;2023-03-12T08:23:03;95123.78;;;30.15;27.67
73332;BME280;61560;33.718;73.040;2023-03-12T08:25:30;95125.97;;;30.04;27.91
73332;BME280;61560;33.718;73.040;2023-03-12T08:27:57;95126.13;;;29.92;27.87
73332;BME280;61560;33.718;73.040;2023-03-12T08:30:23;95119.38;;;29.77;28.29
73332;BME280;61560;33.718;73.040;2023-03-12T08:32:51;95123.59;;;29.65;28.10
73332;BME280;61560;33.718;73.040;2023-03-12T08:35:17;95126.47;;;29.59;28.39
73332;BME280;61560;33.718;73.040;2023-03-12T08:37:44;95128.47;;;29.64;28.41
73332;BME280;61560;33.718;73.040;2023-03-12T08:40:11;95133.28;;;29.69;27.74
73332;BME280;61560;33.718;73.040;2023-03-12T08:42:42;95146.59;;;29.74;27.83
73332;BME280;61560;33.718;73.040;2023-03-12T08:45:10;95150.03;;;29.62;28.00
73332;BME280;61560;33.718;73.040;2023-03-12T08:47:38;95146.41;;;29.43;27.79
73332;BME280;61560;33.718;73.040;2023-03-12T08:50:07;95155.91;;;29.40;28.21
73332;BME280;61560;33.718;73.040;2023-03-12T08:52:34;95154.97;;;29.32;28.14
73332;BME280;61560;33.718;73.040;2023-03-12T08:55:01;95136.09;;;29.21;27.74
73332;BME280;61560;33.718;73.040;2023-03-12T08:57:28;95141.47;;;29.25;27.97
73332;BME280;61560;33.718;73.040;2023-03-12T08:59:55;95130.22;;;29.19;27.35
73332;BME280;61560;33.718;73.040;2023-03-12T09:02:22;95111.47;;;29.22;28.27
73332;BME280;61560;33.718;73.040;2023-03-12T09:04:49;95100.66;;;29.26;28.15
73332;BME280;61560;33.718;73.040;2023-03-12T09:07:16;95116.06;;;29.25;28.71
73332;BME280;61560;33.718;73.040;2023-03-12T09:09:48;95111.22;;;29.20;28.38
73332;BME280;61560;33.718;73.040;2023-03-12T09:12:14;95108.19;;;29.18;28.04
73332;BME280;61560;33.718;73.040;2023-03-12T09:14:42;95119.88;;;28.97;28.59
73332;BME280;61560;33.718;73.040;2023-03-12T09:17:08;95121.63;;;28.71;29.32
73332;BME280;61560;33.718;73.040;2023-03-12T09:19:35;95114.84;;;28.50;29.91
73332;BME280;61560;33.718;73.040;2023-03-12T09:22:01;95110.38;;;28.24;30.14
73332;BME280;61560;33.718;73.040;2023-03-12T09:24:28;95113.56;;;28.04;30.34
73332;BME280;61560;33.718;73.040;2023-03-12T09:26:54;95117.69;;;27.92;31.40
73332;BME280;61560;33.718;73.040;2023-03-12T09:29:21;95113.13;;;27.84;31.46
73332;BME280;61560;33.718;73.040;2023-03-12T09:31:48;95091.16;;;27.77;32.33
73332;BME280;61560;33.718;73.040;2023-03-12T09:34:16;95105.97;;;27.77;32.33
73332;BME280;61560;33.718;73.040;2023-03-12T09:36:42;95099.91;;;27.68;32.44
73332;BME280;61560;33.718;73.040;2023-03-12T09:39:10;95088.97;;;27.47;32.90
73332;BME280;61560;33.718;73.040;2023-03-12T09:41:38;95094.09;;;27.32;33.43
73332;BME280;61560;33.718;73.040;2023-03-12T09:44:32;95098.47;;;27.22;33.63
73332;BME280;61560;33.718;73.040;2023-03-12T09:47:12;95092.06;;;27.22;34.04
73332;BME280;61560;33.718;73.040;2023-03-12T09:49:48;95089.28;;;27.16;34.42
73332;BME280;61560;33.718;73.040;2023-03-12T09:52:30;95076.00;;;27.11;34.36
73332;BME280;61560;33.718;73.040;2023-03-12T09:55:14;95066.56;;;26.98;34.93
73332;BME280;61560;33.718;73.040;2023-03-12T09:57:46;95041.28;;;26.81;34.54
73332;BME280;61560;33.718;73.040;2023-03-12T10:00:16;95057.13;;;26.78;35.04
73332;BME280;61560;33.718;73.040;2023-03-12T10:03:15;95042.81;;;26.76;35.56
73332;BME280;61560;33.718;73.040;2023-03-12T10:06:00;95043.63;;;26.71;35.35
73332;BME280;61560;33.718;73.040;2023-03-12T10:22:44;95007.56;;;26.09;34.95
73332;BME280;61560;33.718;73.040;2023-03-12T10:25:30;95008.59;;;26.06;34.70
73332;BME280;61560;33.718;73.040;2023-03-12T10:28:14;95021.13;;;26.11;34.55
73332;BME280;61560;33.718;73.040;2023-03-12T10:30:54;95024.94;;;26.08;34.39
73332;BME280;61560;33.718;73.040;2023-03-12T10:33:24;95020.56;;;26.01;33.89
73332;BME280;61560;33.718;73.040;2023-03-12T10:35:56;94995.03;;;25.93;33.70
73332;BME280;61560;33.718;73.040;2023-03-12T10:38:31;94981.00;;;25.88;33.71
73332;BME280;61560;33.718;73.040;2023-03-12T10:41:12;94967.22;;;25.79;33.44
73332;BME280;61560;33.718;73.040;2023-03-12T10:43:40;94956.50;;;25.77;33.16
73332;BME280;61560;33.718;73.040;2023-03-12T10:52:01;94913.63;;;25.99;31.48
73332;BME280;61560;33.718;73.040;2023-03-12T10:54:37;94913.41;;;26.14;31.25
73332;BME280;61560;33.718;73.040;2023-03-12T10:57:06;94916.94;;;26.25;31.06
73332;BME280;61560;33.718;73.040;2023-03-12T10:59:35;94898.56;;;26.30;30.84
73332;BME280;61560;33.718;73.040;2023-03-12T11:02:33;94892.19;;;26.35;30.88
73332;BME280;61560;33.718;73.040;2023-03-12T11:05:02;94881.72;;;26.35;30.75
73332;BME280;61560;33.718;73.040;2023-03-12T11:07:33;94881.16;;;26.48;30.00
73332;BME280;61560;33.718;73.040;2023-03-12T11:12:35;94858.38;;;26.68;28.57
73332;BME280;61560;33.718;73.040;2023-03-12T11:20:55;94848.50;;;27.08;27.57
73332;BME280;61560;33.718;73.040;2023-03-12T11:23:29;94838.69;;;27.25;26.93
73332;BME280;61560;33.718;73.040;2023-03-12T11:25:59;94844.50;;;27.38;26.66
73332;BME280;61560;33.718;73.040;2023-03-12T11:29:03;94861.59;;;27.46;26.05
73332;BME280;61560;33.718;73.040;2023-03-12T11:31:35;94864.41;;;27.46;26.73
73332;BME280;61560;33.718;73.040;2023-03-12T11:34:06;94863.69;;;27.34;28.47
73332;BME280;61560;33.718;73.040;2023-03-12T11:42:19;94872.13;;;26.88;30.42
73332;BME280;61560;33.718;73.040;2023-03-12T11:47:31;94865.03;;;26.65;30.98
73332;BME280;61560;33.718;73.040;2023-03-12T11:55:48;94882.19;;;26.50;31.46
73332;BME280;61560;33.718;73.040;2023-03-12T12:01:08;94883.72;;;26.46;31.34
73332;BME280;61560;33.718;73.040;2023-03-12T12:12:33;94886.25;;;26.55;32.32
73332;BME280;61560;33.718;73.040;2023-03-12T12:17:55;94883.75;;;26.35;33.64
73332;BME280;61560;33.718;73.040;2023-03-12T12:23:45;94880.72;;;26.22;34.98
73332;BME280;61560;33.718;73.040;2023-03-12T12:32:04;94889.91;;;25.94;36.24
73332;BME280;61560;33.718;73.040;2023-03-12T12:45:31;94907.19;;;25.32;38.56
73332;BME280;61560;33.718;73.040;2023-03-12T12:48:06;94905.38;;;25.24;39.09
73332;BME280;61560;33.718;73.040;2023-03-12T12:50:38;94908.91;;;25.18;39.53
73332;BME280;61560;33.718;73.040;2023-03-12T12:53:35;94917.56;;;25.09;39.90
73332;BME280;61560;33.718;73.040;2023-03-12T12:59:13;94922.84;;;24.96;40.06
73332;BME280;61560;33.718;73.040;2023-03-12T13:01:33;94919.78;;;24.89;40.62
73332;BME280;61560;33.718;73.040;2023-03-12T13:04:08;94930.47;;;24.85;40.39
73332;BME280;61560;33.718;73.040;2023-03-12T13:07:00;94929.91;;;24.75;40.54
73332;BME280;61560;33.718;73.040;2023-03-12T13:12:29;94930.09;;;24.66;40.41
73332;BME280;61560;33.718;73.040;2023-03-12T13:14:57;94942.00;;;24.61;40.85
73332;BME280;61560;33.718;73.040;2023-03-12T13:17:25;94943.03;;;24.58;40.48
73332;BME280;61560;33.718;73.040;2023-03-12T13:20:09;94942.50;;;24.54;40.73
73332;BME280;61560;33.718;73.040;2023-03-12T13:30:53;94941.66;;;24.42;38.38
73332;BME280;61560;33.718;73.040;2023-03-12T13:33:40;94944.25;;;24.46;37.41
73332;BME280;61560;33.718;73.040;2023-03-12T13:38:59;94949.06;;;24.46;36.23
73332;BME280;61560;33.718;73.040;2023-03-12T13:41:53;94950.81;;;24.43;35.68
73332;BME280;61560;33.718;73.040;2023-03-12T13:54:56;94981.19;;;24.19;37.09
73332;BME280;61560;33.718;73.040;2023-03-12T13:57:46;94990.84;;;24.18;36.79
73332;BME280;61560;33.718;73.040;2023-03-12T14:00:28;94993.09;;;24.14;37.44
73332;BME280;61560;33.718;73.040;2023-03-12T14:03:05;94988.38;;;24.00;37.74
73332;BME280;61560;33.718;73.040;2023-03-12T14:16:56;95018.59;;;23.90;37.25
73332;BME280;61560;33.718;73.040;2023-03-12T14:19:27;95024.69;;;23.89;37.68
73332;BME280;61560;33.718;73.040;2023-03-12T14:21:56;95044.25;;;23.89;37.28
73332;BME280;61560;33.718;73.040;2023-03-12T14:24:40;95046.78;;;23.87;37.12
73332;BME280;61560;33.718;73.040;2023-03-12T14:27:25;95058.41;;;23.80;37.93
73332;BME280;61560;33.718;73.040;2023-03-12T14:30:23;95045.88;;;23.75;38.08
73332;BME280;61560;33.718;73.040;2023-03-12T14:32:56;95057.84;;;23.76;38.10
73332;BME280;61560;33.718;73.040;2023-03-12T14:35:28;95063.44;;;23.76;38.13
73332;BME280;61560;33.718;73.040;2023-03-12T14:38:03;95065.00;;;23.77;38.10
73332;BME280;61560;33.718;73.040;2023-03-12T14:43:00;95065.41;;;23.70;38.57
73332;BME280;61560;33.718;73.040;2023-03-12T14:45:27;95078.56;;;23.64;38.42
73332;BME280;61560;33.718;73.040;2023-03-12T14:47:57;95074.16;;;23.57;38.84
73332;BME280;61560;33.718;73.040;2023-03-12T14:52:54;95076.13;;;23.51;38.02
73332;BME280;61560;33.718;73.040;2023-03-12T14:55:25;95074.34;;;23.48;38.20
73332;BME280;61560;33.718;73.040;2023-03-12T14:58:05;95070.47;;;23.45;38.43
73332;BME280;61560;33.718;73.040;2023-03-12T15:00:32;95068.75;;;23.48;38.36
73332;BME280;61560;33.718;73.040;2023-03-12T15:03:03;95061.81;;;23.43;38.94
73332;BME280;61560;33.718;73.040;2023-03-12T15:05:30;95073.75;;;23.44;38.76
73332;BME280;61560;33.718;73.040;2023-03-12T15:08:01;95071.94;;;23.41;38.20
73332;BME280;61560;33.718;73.040;2023-03-12T15:10:30;95077.53;;;23.41;38.30